createdAt,value
2023-03-22T00:01:44.015Z,6.49
2023-03-22T00:06:45.672Z,6.79
2023-03-22T00:11:50.852Z,6.80
2023-03-22T00:16:52.189Z,6.97
2023-03-22T00:21:53.509Z,6.90
2023-03-22T00:26:54.815Z,6.82
2023-03-22T00:31:56.303Z,7.21
2023-03-22T00:36:57.710Z,7.24
2023-03-22T00:41:59.020Z,7.28
2023-03-22T00:47:00.704Z,7.56
2023-03-22T00:52:02.118Z,7.78
2023-03-22T00:57:03.513Z,7.84
2023-03-22T01:02:05.435Z,7.95
2023-03-22T01:07:07.827Z,8.07
2023-03-22T01:12:09.249Z,8.32
2023-03-22T01:17:11.050Z,8.15
2023-03-22T01:22:12.372Z,8.20
2023-03-22T01:27:13.686Z,8.14
2023-03-22T01:32:15.021Z,8.25
2023-03-22T01:37:16.357Z,8.16
2023-03-22T01:42:18.282Z,8.14
2023-03-22T01:47:19.596Z,8.05
2023-03-22T01:52:21.042Z,7.93
2023-03-22T01:57:22.477Z,7.91
2023-03-22T02:02:24.764Z,7.85
2023-03-22T02:07:27.235Z,7.79
2023-03-22T02:12:36.620Z,7.83
2023-03-22T02:17:51.145Z,7.78
2023-03-22T02:23:00.352Z,7.69
2023-03-22T02:28:13.798Z,7.51
2023-03-22T02:33:26.364Z,7.48
2023-03-22T02:38:27.662Z,7.33
2023-03-22T02:43:38.396Z,7.11
2023-03-22T02:48:53.723Z,6.89
2023-03-22T02:54:03.031Z,6.72
2023-03-22T02:59:06.736Z,6.49
2023-03-22T03:04:11.551Z,6.43
2023-03-22T03:09:18.064Z,6.31
2023-03-22T03:14:23.816Z,6.12
2023-03-22T03:19:30.710Z,5.82
2023-03-22T03:24:38.127Z,5.58
2023-03-22T03:29:39.927Z,5.38
2023-03-22T03:34:55.520Z,5.24
2023-03-22T03:40:09.587Z,5.06
2023-03-22T03:45:11.362Z,5.01
2023-03-22T03:50:16.334Z,5.03
2023-03-22T03:55:18.162Z,4.83
2023-03-22T04:00:19.529Z,4.71
2023-03-22T04:05:21.569Z,4.67
2023-03-22T04:10:23.369Z,4.63
2023-03-22T04:15:24.800Z,4.60
2023-03-22T04:20:26.311Z,4.79
2023-03-22T04:25:30.176Z,5.78
2023-03-22T04:30:36.087Z,6.34
2023-03-22T04:35:37.836Z,6.72
2023-03-22T04:40:39.512Z,6.83
2023-03-22T04:45:42.119Z,6.89
2023-03-22T04:50:43.536Z,6.89
2023-03-22T04:55:45.478Z,6.96
2023-03-22T05:00:47.585Z,7.15
2023-03-22T05:05:57.095Z,7.07
2023-03-22T05:10:59.465Z,7.19
2023-03-22T05:16:00.894Z,7.32
2023-03-22T05:21:06.796Z,7.41
2023-03-22T05:26:08.979Z,7.69
2023-03-22T05:31:11.802Z,7.80
2023-03-22T05:36:13.217Z,7.86
2023-03-22T05:41:14.552Z,7.76
2023-03-22T05:46:15.934Z,7.77
2023-03-22T05:51:17.838Z,7.79
2023-03-22T05:56:24.067Z,7.87
2023-03-22T06:01:25.478Z,7.90
2023-03-22T06:06:28.149Z,8.04
2023-03-22T06:11:30.574Z,8.22
2023-03-22T06:16:31.984Z,8.25
2023-03-22T06:21:33.306Z,8.37
2023-03-22T06:26:34.639Z,8.58
2023-03-22T06:31:36.223Z,8.84
2023-03-22T06:36:37.518Z,9.03
2023-03-22T06:41:38.844Z,9.33
2023-03-22T06:46:40.353Z,9.43
2023-03-22T06:51:41.665Z,9.74
2023-03-22T06:56:43.051Z,9.88
2023-03-22T07:01:44.533Z,9.96
2023-03-22T07:06:46.056Z,10.03
2023-03-22T07:11:47.374Z,11.44
2023-03-22T07:16:48.817Z,11.61
2023-03-22T07:21:50.331Z,11.45
2023-03-22T07:26:51.658Z,11.34
2023-03-22T07:31:53.043Z,10.97
2023-03-22T07:36:56.941Z,10.88
2023-03-22T07:41:58.303Z,11.25
2023-03-22T07:46:59.836Z,11.70
2023-03-22T07:52:02.403Z,11.69
2023-03-22T07:57:03.816Z,12.81
2023-03-22T08:02:06.961Z,13.31
2023-03-22T08:07:10.081Z,14.83
2023-03-22T08:12:11.626Z,14.33
2023-03-22T08:17:12.939Z,13.16
2023-03-22T08:22:15.433Z,12.38
2023-03-22T08:27:17.181Z,12.44
2023-03-22T08:32:18.534Z,13.92
2023-03-22T08:37:20.360Z,14.28
2023-03-22T08:42:21.816Z,15.03
2023-03-22T08:47:23.146Z,14.50
2023-03-22T08:52:24.510Z,16.01
2023-03-22T08:57:27.575Z,15.73
2023-03-22T09:02:28.975Z,14.55
2023-03-22T09:07:30.585Z,15.28
2023-03-22T09:12:31.918Z,16.40
2023-03-22T09:17:33.359Z,16.76
2023-03-22T09:22:34.719Z,16.44
2023-03-22T09:27:36.270Z,16.20
2023-03-22T09:32:38.660Z,16.09
2023-03-22T09:37:40.373Z,16.00
2023-03-22T09:42:49.417Z,16.23
2023-03-22T09:47:54.892Z,15.57
2023-03-22T09:52:56.336Z,15.62
2023-03-22T09:58:20.807Z,16.05
2023-03-22T10:03:36.955Z,16.41
2023-03-22T10:08:48.715Z,16.70
2023-03-22T10:14:13.297Z,16.27
2023-03-22T10:19:41.351Z,15.68
2023-03-22T10:24:45.385Z,15.40
2023-03-22T10:29:50.971Z,14.94
2023-03-22T10:34:52.608Z,15.07
2023-03-22T10:39:55.675Z,15.28
2023-03-22T10:45:12.818Z,16.01
2023-03-22T10:50:32.697Z,15.74
2023-03-22T10:55:39.513Z,15.08
2023-03-22T11:00:45.678Z,14.92
2023-03-22T11:05:57.555Z,14.61
2023-03-22T11:11:00.310Z,14.54
2023-03-22T11:16:02.711Z,14.68
2023-03-22T11:21:06.258Z,15.11
2023-03-22T11:26:12.054Z,15.92
2023-03-22T11:31:15.301Z,15.86
2023-03-22T11:36:18.312Z,15.53
2023-03-22T11:41:22.004Z,15.36
2023-03-22T11:46:24.446Z,14.97
2023-03-22T11:51:32.581Z,14.91
2023-03-22T11:56:34.106Z,14.96
2023-03-22T12:01:53.949Z,15.12
2023-03-22T12:06:56.575Z,15.46
2023-03-22T12:11:59.268Z,15.20
2023-03-22T12:17:00.579Z,14.65
2023-03-22T12:22:02.384Z,14.41
2023-03-22T12:27:20.357Z,14.43
2023-03-22T12:32:26.827Z,14.11
2023-03-22T12:37:31.584Z,14.05
2023-03-22T12:42:47.889Z,13.81
2023-03-22T12:47:55.912Z,13.72
2023-03-22T12:52:58.410Z,13.73
2023-03-22T12:58:00.181Z,13.59
2023-03-22T13:03:03.923Z,13.48
2023-03-22T13:08:05.746Z,13.53
2023-03-22T13:13:22.921Z,13.47
2023-03-22T13:18:45.192Z,13.39
2023-03-22T13:24:07.550Z,13.40
2023-03-22T13:29:17.665Z,13.35
2023-03-22T13:34:20.500Z,13.40
2023-03-22T13:39:25.012Z,13.49
2023-03-22T13:44:26.362Z,13.64
2023-03-22T13:49:28.237Z,13.80
2023-03-22T13:54:42.464Z,13.90
2023-03-22T14:00:15.553Z,14.03
2023-03-22T14:05:22.337Z,13.97
2023-03-22T14:10:44.463Z,13.93
2023-03-22T14:15:49.378Z,13.93
2023-03-22T14:20:53.025Z,13.97
